sensor_id;sensor_type;location;lat;lon;timestamp;pressure;altitude;pressure_sealevel;temperature;humidity
51449;BME280;37520;46.570;14.268;2022-08-01T00:09:07;95796.13;;;17.88;78.13
51449;BME280;37520;46.570;14.268;2022-08-01T00:19:09;95801.31;;;17.79;77.20
51449;BME280;37520;46.570;14.268;2022-08-01T00:29:10;95799.78;;;17.73;78.00
51449;BME280;37520;46.570;14.268;2022-08-01T00:39:12;95802.75;;;17.71;78.83
51449;BME280;37520;46.570;14.268;2022-08-01T00:49:13;95787.63;;;17.62;80.77
51449;BME280;37520;46.570;14.268;2022-08-01T00:59:17;95785.78;;;17.57;81.14
51449;BME280;37520;46.570;14.268;2022-08-01T01:09:36;95795.28;;;17.44;79.11
51449;BME280;37520;46.570;14.268;2022-08-01T01:19:46;95788.38;;;17.38;79.62
51449;BME280;37520;46.570;14.268;2022-08-01T01:29:52;95783.16;;;17.28;80.40
51449;BME280;37520;46.570;14.268;2022-08-01T01:39:55;95787.50;;;17.18;80.60
51449;BME280;37520;46.570;14.268;2022-08-01T01:49:59;95767.84;;;17.04;81.11
51449;BME280;37520;46.570;14.268;2022-08-01T02:00:01;95773.59;;;16.82;79.68
51449;BME280;37520;46.570;14.268;2022-08-01T02:10:06;95779.84;;;16.67;80.63
51449;BME280;37520;46.570;14.268;2022-08-01T02:20:10;95774.88;;;16.55;81.09
51449;BME280;37520;46.570;14.268;2022-08-01T02:30:13;95767.25;;;16.38;80.33
51449;BME280;37520;46.570;14.268;2022-08-01T02:40:17;95770.59;;;16.14;80.85
51449;BME280;37520;46.570;14.268;2022-08-01T02:50:18;95770.63;;;16.09;82.54
51449;BME280;37520;46.570;14.268;2022-08-01T03:00:22;95779.72;;;16.03;82.28
51449;BME280;37520;46.570;14.268;2022-08-01T03:10:27;95779.72;;;15.92;82.19
51449;BME280;37520;46.570;14.268;2022-08-01T03:20:30;95784.56;;;15.80;82.00
51449;BME280;37520;46.570;14.268;2022-08-01T03:30:35;95785.66;;;15.69;83.69
51449;BME280;37520;46.570;14.268;2022-08-01T03:40:47;95786.19;;;15.60;83.55
51449;BME280;37520;46.570;14.268;2022-08-01T03:50:51;95775.84;;;15.54;83.89
51449;BME280;37520;46.570;14.268;2022-08-01T04:00:54;95776.66;;;15.44;83.32
51449;BME280;37520;46.570;14.268;2022-08-01T04:10:56;95769.75;;;15.32;83.73
51449;BME280;37520;46.570;14.268;2022-08-01T04:20:59;95782.28;;;15.37;85.13
51449;BME280;37520;46.570;14.268;2022-08-01T04:31:00;95771.31;;;15.54;86.35
51449;BME280;37520;46.570;14.268;2022-08-01T04:41:03;95783.25;;;15.72;87.07
51449;BME280;37520;46.570;14.268;2022-08-01T04:51:14;95793.09;;;15.87;85.51
51449;BME280;37520;46.570;14.268;2022-08-01T05:01:16;95791.50;;;15.91;86.99
51449;BME280;37520;46.570;14.268;2022-08-01T05:11:17;95796.50;;;16.03;85.86
51449;BME280;37520;46.570;14.268;2022-08-01T05:21:18;95800.47;;;17.01;84.30
51449;BME280;37520;46.570;14.268;2022-08-01T05:31:19;95804.63;;;17.71;76.14
51449;BME280;37520;46.570;14.268;2022-08-01T05:41:21;95815.97;;;18.11;75.40
51449;BME280;37520;46.570;14.268;2022-08-01T05:51:22;95814.34;;;18.53;75.54
51449;BME280;37520;46.570;14.268;2022-08-01T06:01:23;95811.88;;;19.14;73.94
51449;BME280;37520;46.570;14.268;2022-08-01T06:11:25;95801.00;;;20.13;64.32
51449;BME280;37520;46.570;14.268;2022-08-01T06:21:26;95810.13;;;20.77;63.01
51449;BME280;37520;46.570;14.268;2022-08-01T06:31:27;95799.16;;;21.41;59.26
51449;BME280;37520;46.570;14.268;2022-08-01T06:41:41;95798.41;;;22.21;57.48
51449;BME280;37520;46.570;14.268;2022-08-01T06:51:44;95813.84;;;22.82;57.03
51449;BME280;37520;46.570;14.268;2022-08-01T07:01:46;95799.53;;;23.43;52.93
51449;BME280;37520;46.570;14.268;2022-08-01T07:11:47;95803.97;;;23.87;50.04
51449;BME280;37520;46.570;14.268;2022-08-01T07:21:50;95797.28;;;24.53;49.48
51449;BME280;37520;46.570;14.268;2022-08-01T07:31:56;95786.34;;;25.13;48.26
51449;BME280;37520;46.570;14.268;2022-08-01T07:41:57;95783.78;;;25.74;45.73
51449;BME280;37520;46.570;14.268;2022-08-01T07:51:59;95771.16;;;25.33;46.26
51449;BME280;37520;46.570;14.268;2022-08-01T08:02:00;95765.72;;;25.54;50.12
51449;BME280;37520;46.570;14.268;2022-08-01T08:12:01;95770.03;;;26.17;44.49
51449;BME280;37520;46.570;14.268;2022-08-01T08:22:03;95762.25;;;27.09;43.05
51449;BME280;37520;46.570;14.268;2022-08-01T08:32:04;95754.44;;;27.68;40.98
51449;BME280;37520;46.570;14.268;2022-08-01T08:42:06;95750.75;;;27.76;38.16
51449;BME280;37520;46.570;14.268;2022-08-01T08:52:08;95758.03;;;28.04;39.40
51449;BME280;37520;46.570;14.268;2022-08-01T09:02:10;95769.09;;;28.67;40.43
51449;BME280;37520;46.570;14.268;2022-08-01T09:12:16;95759.44;;;29.51;39.06
51449;BME280;37520;46.570;14.268;2022-08-01T09:22:20;95763.53;;;29.88;35.83
51449;BME280;37520;46.570;14.268;2022-08-01T09:32:23;95758.34;;;30.02;36.42
51449;BME280;37520;46.570;14.268;2022-08-01T09:42:26;95749.16;;;30.41;35.80
51449;BME280;37520;46.570;14.268;2022-08-01T09:52:27;95741.72;;;30.68;34.27
51449;BME280;37520;46.570;14.268;2022-08-01T10:02:37;95732.38;;;31.03;34.20
51449;BME280;37520;46.570;14.268;2022-08-01T10:12:41;95730.44;;;31.42;33.63
51449;BME280;37520;46.570;14.268;2022-08-01T10:22:43;95709.38;;;31.91;32.86
51449;BME280;37520;46.570;14.268;2022-08-01T10:32:45;95705.47;;;31.88;33.16
51449;BME280;37520;46.570;14.268;2022-08-01T10:42:47;95694.44;;;32.37;32.07
51449;BME280;37520;46.570;14.268;2022-08-01T10:53:15;95685.16;;;32.59;32.69
51449;BME280;37520;46.570;14.268;2022-08-01T11:03:32;95681.00;;;32.94;32.93
51449;BME280;37520;46.570;14.268;2022-08-01T11:24:01;95657.78;;;32.59;29.89
51449;BME280;37520;46.570;14.268;2022-08-01T11:34:03;95637.59;;;33.22;30.10
51449;BME280;37520;46.570;14.268;2022-08-01T11:44:14;95633.69;;;33.59;31.27
51449;BME280;37520;46.570;14.268;2022-08-01T11:54:16;95625.84;;;33.72;29.71
51449;BME280;37520;46.570;14.268;2022-08-01T12:04:17;95609.41;;;33.25;30.96
51449;BME280;37520;46.570;14.268;2022-08-01T12:14:19;95607.88;;;33.17;31.02
51449;BME280;37520;46.570;14.268;2022-08-01T12:24:22;95592.22;;;33.42;26.01
51449;BME280;37520;46.570;14.268;2022-08-01T12:34:28;95571.47;;;33.16;27.90
51449;BME280;37520;46.570;14.268;2022-08-01T12:44:30;95571.38;;;32.55;30.88
51449;BME280;37520;46.570;14.268;2022-08-01T12:55:05;95569.44;;;31.63;33.30
51449;BME280;37520;46.570;14.268;2022-08-01T13:05:08;95565.22;;;31.70;32.04
51449;BME280;37520;46.570;14.268;2022-08-01T13:15:18;95555.34;;;32.46;28.27
51449;BME280;37520;46.570;14.268;2022-08-01T13:25:20;95552.69;;;33.25;27.46
51449;BME280;37520;46.570;14.268;2022-08-01T13:35:22;95545.28;;;32.97;26.54
51449;BME280;37520;46.570;14.268;2022-08-01T13:45:24;95544.25;;;32.03;30.78
51449;BME280;37520;46.570;14.268;2022-08-01T13:55:25;95536.53;;;32.19;29.46
51449;BME280;37520;46.570;14.268;2022-08-01T14:05:26;95531.13;;;32.44;28.80
51449;BME280;37520;46.570;14.268;2022-08-01T14:15:28;95527.31;;;31.68;29.19
51449;BME280;37520;46.570;14.268;2022-08-01T14:25:30;95523.06;;;31.67;28.82
51449;BME280;37520;46.570;14.268;2022-08-01T14:35:32;95525.16;;;31.29;32.19
51449;BME280;37520;46.570;14.268;2022-08-01T14:45:33;95536.66;;;30.55;28.71
51449;BME280;37520;46.570;14.268;2022-08-01T14:55:34;95533.53;;;30.57;29.02
51449;BME280;37520;46.570;14.268;2022-08-01T15:05:36;95527.97;;;30.09;33.20
51449;BME280;37520;46.570;14.268;2022-08-01T15:15:37;95525.03;;;29.33;37.58
51449;BME280;37520;46.570;14.268;2022-08-01T15:25:39;95531.06;;;28.96;40.93
51449;BME280;37520;46.570;14.268;2022-08-01T15:35:41;95526.69;;;29.41;37.93
51449;BME280;37520;46.570;14.268;2022-08-01T15:45:43;95532.09;;;29.95;32.21
51449;BME280;37520;46.570;14.268;2022-08-01T15:55:45;95530.69;;;30.12;30.70
51449;BME280;37520;46.570;14.268;2022-08-01T16:05:46;95527.84;;;29.40;35.08
51449;BME280;37520;46.570;14.268;2022-08-01T16:15:50;95536.50;;;28.30;39.69
51449;BME280;37520;46.570;14.268;2022-08-01T16:25:52;95533.22;;;27.62;39.76
51449;BME280;37520;46.570;14.268;2022-08-01T16:35:53;95532.13;;;27.31;44.34
51449;BME280;37520;46.570;14.268;2022-08-01T16:45:55;95533.38;;;27.01;48.37
51449;BME280;37520;46.570;14.268;2022-08-01T16:55:57;95541.38;;;26.78;48.81
51449;BME280;37520;46.570;14.268;2022-08-01T17:05:58;95557.03;;;26.41;53.13
51449;BME280;37520;46.570;14.268;2022-08-01T17:15:59;95563.97;;;26.10;50.05
51449;BME280;37520;46.570;14.268;2022-08-01T17:26:01;95576.09;;;25.75;49.34
51449;BME280;37520;46.570;14.268;2022-08-01T17:36:02;95566.91;;;25.51;47.02
51449;BME280;37520;46.570;14.268;2022-08-01T17:46:03;95591.72;;;25.29;49.19
51449;BME280;37520;46.570;14.268;2022-08-01T17:56:05;95609.59;;;24.96;49.84
51449;BME280;37520;46.570;14.268;2022-08-01T18:06:06;95641.69;;;24.52;52.16
51449;BME280;37520;46.570;14.268;2022-08-01T18:16:08;95661.63;;;23.75;57.12
51449;BME280;37520;46.570;14.268;2022-08-01T18:26:13;95675.16;;;22.80;63.09
51449;BME280;37520;46.570;14.268;2022-08-01T18:36:14;95671.53;;;21.97;66.42
51449;BME280;37520;46.570;14.268;2022-08-01T18:46:15;95673.66;;;21.60;73.28
51449;BME280;37520;46.570;14.268;2022-08-01T18:56:17;95694.38;;;21.19;74.26
51449;BME280;37520;46.570;14.268;2022-08-01T19:06:19;95716.16;;;20.86;76.04
51449;BME280;37520;46.570;14.268;2022-08-01T19:16:20;95733.53;;;20.66;79.95
51449;BME280;37520;46.570;14.268;2022-08-01T19:26:24;95730.19;;;20.23;80.35
51449;BME280;37520;46.570;14.268;2022-08-01T19:36:26;95755.06;;;20.15;83.79
51449;BME280;37520;46.570;14.268;2022-08-01T19:46:29;95770.47;;;19.95;83.81
51449;BME280;37520;46.570;14.268;2022-08-01T19:56:35;95764.41;;;19.76;83.78
51449;BME280;37520;46.570;14.268;2022-08-01T20:06:39;95769.75;;;19.62;83.99
51449;BME280;37520;46.570;14.268;2022-08-01T20:16:41;95769.66;;;19.53;85.11
51449;BME280;37520;46.570;14.268;2022-08-01T20:26:48;95785.44;;;19.41;86.78
51449;BME280;37520;46.570;14.268;2022-08-01T20:36:51;95794.75;;;19.29;86.75
51449;BME280;37520;46.570;14.268;2022-08-01T20:46:53;95825.09;;;19.25;87.51
51449;BME280;37520;46.570;14.268;2022-08-01T21:07:21;95879.28;;;19.03;88.88
51449;BME280;37520;46.570;14.268;2022-08-01T21:17:35;95866.09;;;18.87;92.07
51449;BME280;37520;46.570;14.268;2022-08-01T21:27:39;95868.50;;;18.89;93.27
51449;BME280;37520;46.570;14.268;2022-08-01T21:37:41;95885.09;;;18.91;94.65
51449;BME280;37520;46.570;14.268;2022-08-01T21:47:43;95864.38;;;18.77;94.18
51449;BME280;37520;46.570;14.268;2022-08-01T21:58:21;95908.53;;;18.80;96.11
51449;BME280;37520;46.570;14.268;2022-08-01T22:08:35;95899.22;;;18.72;96.77
51449;BME280;37520;46.570;14.268;2022-08-01T22:18:40;95906.19;;;18.73;95.99
51449;BME280;37520;46.570;14.268;2022-08-01T22:28:43;95915.59;;;18.71;96.06
51449;BME280;37520;46.570;14.268;2022-08-01T22:38:44;95954.66;;;18.52;97.48
51449;BME280;37520;46.570;14.268;2022-08-01T22:59:16;95955.09;;;18.35;97.10
51449;BME280;37520;46.570;14.268;2022-08-01T23:09:20;95968.81;;;18.29;98.30
51449;BME280;37520;46.570;14.268;2022-08-01T23:19:23;95990.69;;;18.36;98.48
51449;BME280;37520;46.570;14.268;2022-08-01T23:29:25;96004.28;;;18.40;100.00
51449;BME280;37520;46.570;14.268;2022-08-01T23:39:28;96050.56;;;18.40;100.00
51449;BME280;37520;46.570;14.268;2022-08-01T23:49:29;96040.81;;;18.25;99.22
51449;BME280;37520;46.570;14.268;2022-08-01T23:59:30;96047.28;;;18.19;99.63
